Time;durP1;ratioP1;P1;durP2;ratioP2;P2;SDS_P1;SDS_P2;PMS_P1;PMS_P2;Temp;Humidity;BMP_temperature;BMP_pressure;BME280_temperature;BME280_humidity;BME280_pressure;Samples;Min_cycle;Max_cycle;Signal;HPM_P1;HPM_P2
2022/05/01 00:01:13;;;;;;;7.25;4.35;;;;;;;9.11;55.29;101220.81;8638509;33;20539;-75
2022/05/01 00:06:16;;;;;;;7.50;4.18;;;;;;;9.01;55.49;101216.00;8635913;33;20471;-76
2022/05/01 00:11:20;;;;;;;7.05;4.80;;;;;;;9.07;55.21;101214.75;8637231;33;20692;-76
2022/05/01 00:16:24;;;;;;;10.07;4.80;;;;;;;8.99;54.75;101219.72;8640091;33;20512;-76
2022/05/01 00:21:27;;;;;;;6.20;4.53;;;;;;;8.91;55.41;101212.16;8642861;33;20411;-75
2022/05/01 00:26:32;;;;;;;6.25;4.35;;;;;;;8.84;55.68;101211.69;8641559;33;20504;-75
2022/05/01 00:31:35;;;;;;;7.88;4.90;;;;;;;8.82;55.52;101216.25;8642313;33;20294;-75
2022/05/01 00:36:39;;;;;;;6.18;4.30;;;;;;;8.77;56.16;101204.94;8641833;33;20148;-75
2022/05/01 00:41:46;;;;;;;11.30;4.85;;;;;;;8.66;56.11;101210.09;8638151;33;20183;-76
2022/05/01 00:46:51;;;;;;;7.80;4.40;;;;;;;8.69;56.37;101206.38;8636391;33;20224;-76
2022/05/01 00:51:58;;;;;;;7.63;4.82;;;;;;;8.55;56.54;101202.69;8637596;33;20495;-76
2022/05/01 00:57:05;;;;;;;5.65;4.85;;;;;;;8.55;56.92;101207.19;8635999;33;21030;-76
2022/05/01 01:02:08;;;;;;;6.88;4.80;;;;;;;8.54;57.00;101203.66;8641424;33;20515;-76
2022/05/01 01:07:12;;;;;;;7.45;5.07;;;;;;;8.60;57.10;101197.94;8638545;33;20776;-76
2022/05/01 01:17:46;;;;;;;9.60;5.60;;;;;;;8.56;57.47;101211.63;8665155;33;20184;-76
2022/05/01 01:22:53;;;;;;;7.53;4.82;;;;;;;8.53;58.36;101217.13;8641589;33;20426;-76
2022/05/01 01:28:02;;;;;;;8.07;5.38;;;;;;;8.50;58.16;101218.22;8646539;33;20431;-76
2022/05/01 01:33:05;;;;;;;8.38;5.25;;;;;;;8.53;58.24;101215.34;8647396;33;20143;-74
2022/05/01 01:38:10;;;;;;;7.93;5.82;;;;;;;8.44;58.37;101217.66;8639841;33;20419;-75
2022/05/01 01:43:16;;;;;;;9.70;5.95;;;;;;;8.32;58.63;101222.78;8631398;33;20632;-76
2022/05/01 01:48:21;;;;;;;9.25;6.00;;;;;;;8.41;59.11;101226.72;8628173;33;20169;-75
2022/05/01 01:53:27;;;;;;;8.95;6.30;;;;;;;8.35;59.71;101229.78;8626590;33;20667;-75
2022/05/01 01:58:31;;;;;;;9.48;6.00;;;;;;;8.32;60.33;101219.25;8627110;33;20446;-75
2022/05/01 02:03:34;;;;;;;10.50;6.35;;;;;;;8.37;60.41;101217.16;8627826;33;20143;-75
2022/05/01 02:08:40;;;;;;;9.48;6.57;;;;;;;8.35;60.62;101213.72;8629026;33;20439;-76
2022/05/01 02:13:44;;;;;;;10.48;6.95;;;;;;;8.33;60.68;101210.25;8633860;33;20416;-76
2022/05/01 02:18:47;;;;;;;11.20;7.40;;;;;;;8.29;60.84;101200.69;8638388;33;20147;-76
2022/05/01 02:23:51;;;;;;;11.80;7.22;;;;;;;8.20;61.35;101201.22;8652579;33;20139;-76
2022/05/01 02:28:54;;;;;;;14.35;7.05;;;;;;;8.10;61.95;101200.91;8656455;33;20557;-74
2022/05/01 02:33:57;;;;;;;12.85;7.47;;;;;;;8.22;61.84;101204.66;8656258;33;20415;-76
2022/05/01 02:39:02;;;;;;;11.77;7.38;;;;;;;8.15;62.26;101199.69;8658459;33;20413;-75
2022/05/01 02:44:05;;;;;;;9.85;7.43;;;;;;;8.15;62.56;101199.69;8646665;33;20226;-75
2022/05/01 02:49:08;;;;;;;16.13;8.50;;;;;;;8.07;63.29;101191.22;8644980;33;20256;-75
2022/05/01 02:54:12;;;;;;;14.88;8.55;;;;;;;8.10;63.09;101196.41;8644572;33;20636;-75
2022/05/01 02:59:16;;;;;;;15.05;9.05;;;;;;;8.07;63.53;101185.03;8645736;33;20852;-75
2022/05/01 03:04:19;;;;;;;12.40;8.37;;;;;;;8.12;63.46;101182.94;8646444;33;21098;-75
2022/05/01 03:09:23;;;;;;;14.68;8.75;;;;;;;8.04;63.74;101186.06;8646661;33;21083;-76
2022/05/01 03:14:26;;;;;;;19.08;9.85;;;;;;;7.77;64.65;101184.97;8653968;33;20923;-76
2022/05/01 03:24:52;;;;;;;15.10;8.48;;;;;;;7.91;64.59;101187.72;8646590;33;20392;-75
2022/05/01 03:35:12;;;;;;;13.63;8.98;;;;;;;7.77;66.27;101176.94;8636615;33;20507;-76
2022/05/01 03:40:17;;;;;;;15.05;9.45;;;;;;;7.95;66.17;101183.88;8635123;33;20230;-76
2022/05/01 03:45:20;;;;;;;14.80;8.88;;;;;;;8.03;65.68;101178.97;8634938;33;20167;-76
2022/05/01 03:50:23;;;;;;;15.77;9.05;;;;;;;7.97;65.55;101183.81;8651358;33;20204;-76
2022/05/01 03:55:27;;;;;;;17.40;10.13;;;;;;;8.06;65.42;101180.59;8627599;33;20309;-76
2022/05/01 04:00:31;;;;;;;17.02;9.95;;;;;;;8.11;65.31;101167.81;8629591;33;21014;-74
2022/05/01 04:05:34;;;;;;;18.15;9.93;;;;;;;8.08;65.44;101181.38;8639200;33;20293;-76
2022/05/01 04:10:41;;;;;;;18.63;9.75;;;;;;;8.01;66.08;101180.88;8641852;33;20241;-74
2022/05/01 04:15:44;;;;;;;15.50;9.55;;;;;;;8.07;65.63;101185.03;8643537;33;20274;-74
2022/05/01 04:20:47;;;;;;;16.50;9.48;;;;;;;8.12;65.28;101182.94;8635401;33;20281;-74
2022/05/01 04:25:52;;;;;;;15.32;9.68;;;;;;;8.08;65.84;101192.94;8633283;33;20421;-75
2022/05/01 04:30:55;;;;;;;15.90;9.20;;;;;;;8.13;65.66;101195.34;8634310;33;20433;-75
2022/05/01 04:35:59;;;;;;;15.52;9.65;;;;;;;8.09;65.96;101200.03;8632547;33;20514;-76
2022/05/01 04:41:04;;;;;;;16.50;9.70;;;;;;;8.28;65.66;101205.19;8633095;33;20487;-76
2022/05/01 04:46:08;;;;;;;17.25;9.93;;;;;;;8.45;65.37;101200.63;8633625;33;20450;-76
2022/05/01 04:51:11;;;;;;;17.27;9.25;;;;;;;8.47;64.91;101196.94;8634314;33;20465;-76
2022/05/01 05:01:37;;;;;;;17.17;10.23;;;;;;;8.43;65.28;101200.72;8635499;33;20685;-75
2022/05/01 05:06:40;;;;;;;13.77;8.80;;;;;;;8.44;65.34;101197.09;8637543;33;20147;-74
2022/05/01 05:11:44;;;;;;;16.35;9.70;;;;;;;8.39;65.58;101201.84;8641243;33;20205;-76
2022/05/01 05:16:47;;;;;;;17.63;10.20;;;;;;;8.45;65.83;101196.16;8638807;33;20462;-75
2022/05/01 05:21:50;;;;;;;18.00;9.55;;;;;;;8.54;65.30;101195.63;8639771;33;20395;-74
2022/05/01 05:27:00;;;;;;;18.90;10.13;;;;;;;8.63;65.52;101204.06;8637015;33;20142;-76
2022/05/01 05:32:04;;;;;;;16.92;9.93;;;;;;;8.74;65.27;101205.13;8638363;33;20456;-75
2022/05/01 05:37:07;;;;;;;16.98;9.48;;;;;;;8.81;65.26;101202.97;8637827;33;20564;-75
2022/05/01 05:42:13;;;;;;;17.38;9.55;;;;;;;8.82;64.94;101213.56;8635434;33;20825;-76
2022/05/01 05:47:16;;;;;;;14.77;10.07;;;;;;;8.86;65.10;101219.63;8629803;33;20363;-76
2022/05/01 05:52:19;;;;;;;14.30;9.45;;;;;;;9.14;64.48;101226.00;8628773;33;20139;-76
2022/05/01 05:57:23;;;;;;;17.23;10.15;;;;;;;9.12;64.07;101215.34;8627028;33;21054;-75
2022/05/01 06:02:26;;;;;;;17.55;9.48;;;;;;;8.99;64.63;101227.78;8635463;33;20514;-76
2022/05/01 06:07:30;;;;;;;22.10;9.55;;;;;;;8.94;64.43;101228.06;8636073;33;20285;-75
2022/05/01 06:12:41;;;;;;;14.73;9.27;;;;;;;8.77;64.79;101229.06;8637392;33;20230;-75
2022/05/01 06:17:44;;;;;;;8.55;5.28;;;;;;;9.22;66.83;101226.38;8633171;33;20436;-75
2022/05/01 06:22:50;;;;;;;12.02;6.90;;;;;;;9.78;64.24;101218.38;8632465;33;20858;-76
2022/05/01 06:27:54;;;;;;;13.93;7.63;;;;;;;10.16;62.51;101218.59;8633090;33;20273;-75
2022/05/01 06:32:57;;;;;;;11.55;6.95;;;;;;;10.37;61.30;101219.84;8630901;33;20406;-75
2022/05/01 06:38:00;;;;;;;11.75;7.00;;;;;;;10.82;60.11;101222.19;8631708;33;20983;-74
2022/05/01 06:43:06;;;;;;;10.60;7.13;;;;;;;10.67;59.69;101229.50;8632507;33;20432;-75
2022/05/01 06:48:10;;;;;;;10.85;7.07;;;;;;;11.01;59.53;101222.63;8632877;33;20388;-74
2022/05/01 06:53:13;;;;;;;12.27;8.40;;;;;;;11.08;58.51;101228.47;8632671;33;20150;-74
2022/05/01 06:58:18;;;;;;;8.98;5.80;;;;;;;11.37;57.32;101221.03;8634575;33;20468;-75
2022/05/01 07:03:22;;;;;;;9.75;6.20;;;;;;;11.71;56.80;101227.56;8646113;33;20420;-76
2022/05/01 07:08:25;;;;;;;10.73;6.20;;;;;;;11.84;55.71;101226.66;8664833;33;20901;-74
2022/05/01 07:13:30;;;;;;;9.18;6.35;;;;;;;12.15;55.09;101225.28;8673699;33;20355;-75
2022/05/01 07:18:33;;;;;;;9.57;6.75;;;;;;;12.36;54.37;101225.50;8694819;32;20170;-76
2022/05/01 07:23:36;;;;;;;11.30;6.13;;;;;;;12.47;53.40;101222.00;8688960;33;20728;-75
2022/05/01 07:28:41;;;;;;;10.52;7.00;;;;;;;12.43;53.56;101215.16;8661284;33;20446;-75
2022/05/01 07:33:44;;;;;;;11.98;6.53;;;;;;;12.39;53.81;101209.13;8671598;33;20565;-75
2022/05/01 07:38:48;;;;;;;7.80;4.95;;;;;;;12.67;52.33;101213.28;8675656;33;20135;-75
2022/05/01 07:43:55;;;;;;;8.18;5.00;;;;;;;12.71;51.86;101224.66;8691233;33;20516;-75
2022/05/01 07:48:58;;;;;;;7.60;4.93;;;;;;;13.08;50.12;101225.34;8695223;33;21001;-75
2022/05/01 07:54:01;;;;;;;8.65;4.88;;;;;;;13.24;49.83;101222.31;8697976;33;20439;-76
2022/05/01 07:59:08;;;;;;;7.50;4.90;;;;;;;13.01;50.51;101224.13;8703604;33;20507;-73
2022/05/01 08:04:30;;;;;;;6.10;4.22;;;;;;;13.21;49.33;101226.13;8702999;33;20403;-75
2022/05/01 08:09:33;;;;;;;7.35;4.95;;;;;;;13.31;49.54;101220.00;8707428;33;20420;-75
2022/05/01 08:14:41;;;;;;;6.57;4.88;;;;;;;13.66;48.50;101223.47;8702388;33;20494;-75
2022/05/01 08:25:06;;;;;;;7.47;4.68;;;;;;;14.48;46.68;101223.03;8700909;33;20139;-76
2022/05/01 08:30:12;;;;;;;11.70;5.07;;;;;;;14.54;46.61;101232.47;8699985;33;20318;-76
2022/05/01 08:35:15;;;;;;;7.18;4.72;;;;;;;14.92;46.55;101221.09;8685359;32;20147;-76
2022/05/01 08:40:18;;;;;;;7.22;4.75;;;;;;;15.27;44.08;101234.22;8667676;33;20225;-75
2022/05/01 08:45:27;;;;;;;5.95;4.13;;;;;;;15.14;43.59;101230.91;8675918;33;20902;-76
2022/05/01 08:50:31;;;;;;;7.90;4.35;;;;;;;15.02;44.17;101235.53;8683187;33;20154;-74
2022/05/01 08:55:35;;;;;;;7.88;4.50;;;;;;;15.13;43.17;101231.88;8681359;32;20175;-75
2022/05/01 09:00:40;;;;;;;8.07;4.82;;;;;;;15.20;43.90;101229.50;8685072;33;20403;-74
2022/05/01 09:05:43;;;;;;;6.28;4.13;;;;;;;15.43;45.04;101217.53;8682105;33;20660;-75
2022/05/01 09:10:46;;;;;;;9.02;5.05;;;;;;;15.25;43.08;101211.03;8683765;33;20146;-75
2022/05/01 09:15:51;;;;;;;7.63;4.55;;;;;;;15.03;43.40;101217.47;8674548;33;20142;-75
2022/05/01 09:21:07;;;;;;;5.35;3.90;;;;;;;15.51;41.15;101216.84;8683229;33;20533;-76
2022/05/01 09:26:12;;;;;;;5.20;3.90;;;;;;;15.76;40.84;101222.78;8699104;33;20141;-75
2022/05/01 09:31:17;;;;;;;4.05;3.58;;;;;;;15.10;39.56;101213.22;8697889;33;21121;-74
2022/05/01 09:36:36;;;;;;;5.55;3.20;;;;;;;16.09;36.31;101210.75;8696420;33;20638;-75
2022/05/01 09:41:42;;;;;;;6.47;3.55;;;;;;;15.94;37.35;101215.72;8693906;33;20482;-75
2022/05/01 09:46:49;;;;;;;4.47;3.53;;;;;;;16.42;38.82;101205.94;8691980;33;20435;-73
2022/05/01 09:51:55;;;;;;;8.30;3.80;;;;;;;17.34;35.87;101202.69;8692595;33;20147;-74
2022/05/01 09:57:01;;;;;;;5.32;3.50;;;;;;;16.67;37.43;101202.66;8692028;33;20452;-73
2022/05/01 10:02:08;;;;;;;8.80;3.97;;;;;;;16.84;37.48;101197.47;8692782;33;20909;-74
2022/05/01 10:07:16;;;;;;;5.07;3.30;;;;;;;17.45;35.44;101199.78;8689145;32;20127;-73
2022/05/01 10:12:22;;;;;;;5.37;3.77;;;;;;;17.92;35.43;101197.78;8690415;33;20572;-75
2022/05/01 10:17:26;;;;;;;5.18;3.97;;;;;;;17.98;35.75;101192.78;8692410;33;20496;-76
2022/05/01 10:22:32;;;;;;;4.20;3.53;;;;;;;17.72;36.92;101181.75;8691627;33;20142;-74
2022/05/01 10:27:47;;;;;;;4.10;3.40;;;;;;;17.67;35.53;101180.34;8689943;33;20310;-76
2022/05/01 10:33:46;;;;;;;6.32;3.95;;;;;;;16.93;34.30;101181.19;8691615;33;20275;-75
2022/05/01 10:39:11;;;;;;;5.85;3.80;;;;;;;16.50;35.76;101174.41;8454189;34;20447;-74
2022/05/01 10:44:30;;;;;;;6.82;3.38;;;;;;;16.99;35.52;101177.88;8670194;32;20243;-75
2022/05/01 10:49:37;;;;;;;4.32;3.05;;;;;;;17.09;33.50;101167.00;8688827;33;20245;-73
2022/05/01 10:54:40;;;;;;;5.72;3.88;;;;;;;16.84;34.12;101163.09;8689498;33;20700;-76
2022/05/01 10:59:48;;;;;;;6.07;4.30;;;;;;;16.64;34.45;101164.13;8689779;32;20215;-73
2022/05/01 11:04:56;;;;;;;7.10;3.70;;;;;;;16.49;33.78;101158.28;8691398;33;20409;-74
2022/05/01 11:10:01;;;;;;;6.05;3.80;;;;;;;16.12;35.02;101159.81;8697405;33;20197;-74
2022/05/01 11:15:08;;;;;;;5.60;3.78;;;;;;;16.67;33.74;101156.53;8702448;33;20174;-74
2022/05/01 11:20:34;;;;;;;6.28;3.97;;;;;;;16.74;33.88;101156.81;8701211;33;20146;-75
2022/05/01 11:25:40;;;;;;;7.03;4.30;;;;;;;17.03;33.37;101154.91;8673249;33;20459;-75
2022/05/01 11:30:43;;;;;;;5.05;3.55;;;;;;;16.18;34.89;101149.41;8646886;33;20426;-75
2022/05/01 11:36:04;;;;;;;6.43;3.65;;;;;;;15.99;34.65;101145.72;8644978;33;20586;-74
2022/05/01 11:41:10;;;;;;;7.32;4.20;;;;;;;16.61;34.04;101142.72;8639411;33;20149;-75
2022/05/01 11:46:19;;;;;;;4.50;3.67;;;;;;;16.97;32.98;101136.47;8643241;33;20151;-75
2022/05/01 11:51:24;;;;;;;3.90;3.15;;;;;;;18.46;32.94;101131.72;8653794;33;20155;-76
2022/05/01 12:07:12;;;;;;;3.58;3.10;;;;;;;19.78;31.44;101110.50;8641446;33;20135;-75
2022/05/01 12:12:19;;;;;;;5.03;3.95;;;;;;;20.75;30.44;101095.16;8643457;33;20496;-75
2022/05/01 12:17:22;;;;;;;5.88;4.47;;;;;;;21.68;29.50;101112.75;8641953;33;20520;-76
2022/05/01 12:22:37;;;;;;;6.50;4.30;;;;;;;19.44;30.44;101099.63;8656193;33;20154;-75
2022/05/01 12:27:41;;;;;;;4.70;3.70;;;;;;;18.99;33.02;101095.34;8680367;33;20150;-75
2022/05/01 12:32:54;;;;;;;6.13;4.45;;;;;;;18.55;32.28;101098.13;8683632;33;20170;-75
2022/05/01 12:38:00;;;;;;;5.90;4.32;;;;;;;17.91;33.31;101094.69;8686876;33;20449;-75
2022/05/01 12:48:25;;;;;;;6.53;4.30;;;;;;;18.23;34.11;101091.41;8688552;33;20418;-75
2022/05/01 12:53:31;;;;;;;5.10;3.90;;;;;;;19.44;32.40;101081.44;8692387;33;20289;-75
2022/05/01 12:58:35;;;;;;;5.97;4.70;;;;;;;19.38;32.18;101086.66;8688588;33;20238;-75
2022/05/01 13:03:40;;;;;;;4.88;4.38;;;;;;;19.83;32.45;101094.50;8689620;33;20596;-75
2022/05/01 13:08:48;;;;;;;6.00;4.50;;;;;;;19.68;31.62;101082.53;8681843;33;20148;-75
2022/05/01 13:13:54;;;;;;;7.32;5.10;;;;;;;18.57;32.40;101075.19;8683752;33;20622;-74
2022/05/01 13:18:59;;;;;;;6.90;4.85;;;;;;;17.18;33.55;101073.00;8653006;33;20143;-74
2022/05/01 13:24:08;;;;;;;6.22;5.05;;;;;;;18.32;33.50;101070.56;8649676;33;20398;-74
2022/05/01 13:29:13;;;;;;;5.30;4.32;;;;;;;18.91;33.39;101063.50;8644274;33;20492;-76
2022/05/01 13:34:20;;;;;;;6.38;4.80;;;;;;;19.11;32.78;101055.91;8638714;33;20433;-76
2022/05/01 13:44:44;;;;;;;5.78;4.60;;;;;;;18.88;32.33;101052.94;8638598;33;20574;-74
2022/05/01 13:44:50;;;;;;;5.75;4.70;;;;;;;18.88;33.49;101047.50;8638916;33;20431;-74
2022/05/01 13:49:55;;;;;;;8.18;4.65;;;;;;;19.08;33.65;101042.63;8639606;33;20556;-76
2022/05/01 13:55:00;;;;;;;6.22;4.70;;;;;;;20.20;32.00;101035.00;8663898;33;20541;-74
2022/05/01 14:00:05;;;;;;;7.95;4.43;;;;;;;19.67;32.63;101035.34;8666377;33;20155;-75
2022/05/01 14:05:14;;;;;;;7.65;4.68;;;;;;;19.24;33.26;101030.97;8666731;32;20412;-76
2022/05/01 14:10:18;;;;;;;5.07;4.47;;;;;;;18.41;34.51;101030.72;8668773;33;20268;-77
2022/05/01 14:15:22;;;;;;;7.47;5.13;;;;;;;17.96;33.01;101028.97;8667998;33;20407;-75
2022/05/01 14:20:25;;;;;;;6.47;5.13;;;;;;;17.75;34.79;101023.88;8693557;33;20134;-75
2022/05/01 14:25:30;;;;;;;7.85;5.40;;;;;;;17.31;34.94;101021.06;8697337;33;20142;-75
2022/05/01 14:30:36;;;;;;;8.60;4.75;;;;;;;16.20;37.04;101020.88;8709556;33;20418;-75
2022/05/01 14:35:39;;;;;;;5.95;4.88;;;;;;;16.81;37.02;101017.72;8707226;33;20142;-75
2022/05/01 14:40:48;;;;;;;4.97;4.47;;;;;;;17.18;35.52;101013.28;8705327;33;20595;-76
2022/05/01 14:45:58;;;;;;;6.45;4.53;;;;;;;17.47;36.00;101007.66;8705087;33;20965;-75
2022/05/01 14:51:02;;;;;;;6.72;4.45;;;;;;;17.60;35.86;101015.41;8705504;33;20444;-74
2022/05/01 14:56:08;;;;;;;4.90;4.40;;;;;;;17.35;36.07;101004.28;8702199;33;20418;-75
2022/05/01 15:06:32;;;;;;;6.70;4.50;;;;;;;17.11;36.93;101006.69;8705262;33;20396;-74
2022/05/01 15:11:38;;;;;;;6.63;4.57;;;;;;;17.17;37.05;101006.16;8704913;33;20481;-72
2022/05/01 15:16:48;;;;;;;7.13;4.78;;;;;;;17.05;37.36;101000.03;8702213;33;20418;-74
2022/05/01 15:22:23;;;;;;;6.05;4.70;;;;;;;17.03;36.98;101002.03;8693638;33;20411;-73
2022/05/01 15:27:39;;;;;;;6.95;4.70;;;;;;;16.69;37.55;100996.34;8695004;32;20239;-71
2022/05/01 15:38:22;;;;;;;5.55;4.25;;;;;;;16.70;37.45;101000.75;8698150;33;20679;-72
2022/05/01 15:43:31;;;;;;;5.85;4.63;;;;;;;16.57;37.57;101001.13;8695836;33;21197;-71
2022/05/01 15:53:52;;;;;;;7.63;4.82;;;;;;;16.54;37.74;100999.56;8698826;32;21024;-72
2022/05/01 15:58:59;;;;;;;7.50;4.90;;;;;;;16.65;37.31;100989.50;8698850;33;20406;-73
2022/05/01 16:04:02;;;;;;;7.18;4.72;;;;;;;16.21;37.23;100984.66;8702465;33;20994;-71
2022/05/01 16:09:08;;;;;;;7.30;5.18;;;;;;;16.36;38.24;100985.91;8703454;33;20317;-72
2022/05/01 16:14:19;;;;;;;7.28;4.78;;;;;;;16.47;37.46;100973.19;8712371;33;20452;-72
2022/05/01 16:19:32;;;;;;;5.57;4.57;;;;;;;16.13;38.12;100969.13;8718301;33;21160;-72
2022/05/01 16:24:42;;;;;;;6.35;4.40;;;;;;;15.99;38.15;100972.28;8689737;33;20616;-72
2022/05/01 16:29:55;;;;;;;6.75;4.50;;;;;;;16.04;38.96;100969.97;8688664;33;20238;-72
2022/05/01 16:35:04;;;;;;;5.10;4.55;;;;;;;15.91;39.54;100972.16;8712359;32;20149;-71
2022/05/01 16:40:10;;;;;;;5.13;4.22;;;;;;;15.79;39.26;100968.72;8687875;33;20416;-72
2022/05/01 16:45:15;;;;;;;4.82;4.05;;;;;;;15.68;39.47;100963.47;8681725;33;21019;-72
2022/05/01 16:50:23;;;;;;;8.07;4.88;;;;;;;15.55;39.40;100960.19;8680391;33;20181;-72
2022/05/01 16:55:31;;;;;;;8.45;4.88;;;;;;;15.29;40.39;100960.75;8682459;33;20230;-72
2022/05/01 17:00:36;;;;;;;5.38;4.85;;;;;;;15.05;41.21;100959.28;8679357;33;21015;-73
2022/05/01 17:05:54;;;;;;;7.28;4.88;;;;;;;14.89;40.73;100949.97;8697769;33;20434;-72
2022/05/01 17:11:07;;;;;;;6.60;4.40;;;;;;;14.66;41.17;100952.91;8699660;33;20407;-72
2022/05/01 17:16:20;;;;;;;6.22;4.50;;;;;;;14.68;41.40;100950.94;8699703;33;20671;-72
2022/05/01 17:21:30;;;;;;;6.90;5.18;;;;;;;14.61;41.68;100960.56;8704935;33;20142;-71
2022/05/01 17:26:39;;;;;;;6.57;4.95;;;;;;;14.54;42.10;100946.75;8698654;33;21019;-72
2022/05/01 17:31:53;;;;;;;7.85;5.43;;;;;;;14.47;41.74;100947.44;8695483;33;20143;-72
2022/05/01 17:36:58;;;;;;;7.93;5.10;;;;;;;14.23;42.61;100940.47;8697667;33;20146;-72
2022/05/01 17:42:04;;;;;;;6.20;4.63;;;;;;;14.04;41.90;100941.25;8700878;33;20158;-71
2022/05/01 17:47:09;;;;;;;6.68;4.25;;;;;;;13.92;42.44;100942.28;8697065;33;20138;-72
2022/05/01 17:52:17;;;;;;;5.93;4.50;;;;;;;13.79;41.81;100938.94;8673909;33;20426;-71
2022/05/01 17:57:20;;;;;;;6.78;4.65;;;;;;;13.80;42.25;100955.00;8697885;33;20502;-71
2022/05/01 18:03:09;;;;;;;6.35;4.32;;;;;;;13.76;42.57;100950.00;8678229;33;20445;-71
2022/05/01 18:14:00;;;;;;;5.63;4.15;;;;;;;13.69;43.27;100973.97;8698630;33;20150;-71
2022/05/01 18:19:22;;;;;;;7.35;4.10;;;;;;;13.61;43.99;100976.47;8708921;33;20432;-72
2022/05/01 18:24:36;;;;;;;5.40;4.38;;;;;;;13.46;44.09;100971.34;8709362;33;20208;-72
2022/05/01 18:30:13;;;;;;;5.78;4.00;;;;;;;13.32;44.10;100971.63;8704706;33;20130;-72
2022/05/01 18:35:22;;;;;;;5.90;3.80;;;;;;;13.18;44.92;100978.16;8705159;33;20614;-73
2022/05/01 18:40:26;;;;;;;4.28;3.58;;;;;;;13.18;45.08;100980.00;8704204;33;20321;-72
2022/05/01 18:45:29;;;;;;;4.13;3.72;;;;;;;13.11;45.23;100984.19;8678217;33;20249;-72
2022/05/01 18:50:36;;;;;;;6.45;3.92;;;;;;;13.07;45.59;100982.75;8674534;33;20161;-72
2022/05/01 18:55:39;;;;;;;4.13;3.60;;;;;;;12.97;46.01;100983.50;8674073;33;20138;-71
2022/05/01 19:00:42;;;;;;;4.63;3.28;;;;;;;12.91;46.07;100983.97;8676665;33;20656;-71
2022/05/01 19:06:04;;;;;;;5.55;3.97;;;;;;;12.83;45.76;100997.22;8670011;33;20460;-71
2022/05/01 19:11:22;;;;;;;5.43;4.32;;;;;;;12.73;46.21;100996.28;8670339;33;21153;-71
2022/05/01 19:16:39;;;;;;;4.47;4.03;;;;;;;12.70;46.59;100996.50;8680202;32;20398;-72
2022/05/01 19:22:11;;;;;;;4.93;3.85;;;;;;;12.66;46.73;101011.22;8648841;33;20245;-72
2022/05/01 19:27:22;;;;;;;5.78;3.95;;;;;;;12.59;47.07;101009.03;8659736;33;20678;-72
2022/05/01 19:32:34;;;;;;;6.85;3.65;;;;;;;12.49;47.40;101007.19;8662292;33;20205;-72
2022/05/01 19:37:47;;;;;;;7.13;5.25;;;;;;;12.32;48.25;101003.97;8668372;33;20153;-72
2022/05/01 19:43:18;;;;;;;6.18;4.30;;;;;;;12.17;48.09;101021.28;8668029;33;20336;-72
2022/05/01 19:53:52;;;;;;;4.88;3.80;;;;;;;11.98;49.20;101021.00;8634356;33;20568;-72
2022/05/01 19:59:01;;;;;;;4.05;3.65;;;;;;;11.82;49.82;101015.94;8661391;33;20243;-71
2022/05/01 20:04:05;;;;;;;7.43;4.28;;;;;;;11.71;50.11;101019.44;8666996;33;20447;-72
2022/05/01 20:09:11;;;;;;;6.30;4.00;;;;;;;11.62;49.89;101015.63;8651761;33;20552;-72
2022/05/01 20:14:14;;;;;;;5.40;3.85;;;;;;;11.58;50.48;101013.28;8641956;33;20349;-72
2022/05/01 20:19:22;;;;;;;5.03;3.88;;;;;;;11.48;50.47;101011.28;8648031;33;20730;-72
2022/05/01 20:25:01;;;;;;;5.28;4.60;;;;;;;11.43;50.49;101010.75;8673158;33;20652;-72
2022/05/01 20:30:08;;;;;;;10.70;4.82;;;;;;;11.34;51.01;101015.97;8673054;33;20492;-72
2022/05/01 20:35:13;;;;;;;9.43;5.03;;;;;;;11.26;51.14;101019.22;8676643;33;20225;-72
2022/05/01 20:40:23;;;;;;;6.80;4.60;;;;;;;11.19;51.74;101017.94;8682574;33;20905;-72
2022/05/01 20:45:33;;;;;;;7.63;4.32;;;;;;;11.14;52.17;101018.31;8690506;33;20467;-72
2022/05/01 20:50:44;;;;;;;7.47;4.50;;;;;;;11.12;51.73;101014.00;8684135;33;20157;-72
2022/05/01 20:55:49;;;;;;;7.13;4.75;;;;;;;11.05;51.61;101005.50;8678387;33;20193;-72
2022/05/01 21:00:53;;;;;;;5.53;4.53;;;;;;;11.02;51.98;101008.41;8674969;33;20484;-72
2022/05/01 21:05:57;;;;;;;6.85;5.38;;;;;;;10.91;52.03;101011.88;8665720;33;20172;-72
2022/05/01 21:11:04;;;;;;;7.97;5.07;;;;;;;10.86;52.25;101005.13;8669638;33;20430;-72
2022/05/01 21:16:09;;;;;;;6.03;4.72;;;;;;;10.79;52.39;101008.25;8687623;33;20243;-71
2022/05/01 21:21:14;;;;;;;6.18;5.43;;;;;;;10.64;52.87;101005.81;8711548;33;20142;-72
2022/05/01 21:26:18;;;;;;;5.30;4.82;;;;;;;10.53;53.74;101010.13;8711462;27;20260;-74
2022/05/01 21:36:42;;;;;;;8.60;5.50;;;;;;;10.35;53.99;101008.75;8647057;33;20200;-72
2022/05/01 21:41:47;;;;;;;8.50;5.90;;;;;;;10.19;54.63;101005.41;8604058;33;20590;-72
2022/05/01 21:46:50;;;;;;;7.38;5.20;;;;;;;10.08;54.76;101004.31;8579535;33;20440;-73
2022/05/01 21:51:53;;;;;;;8.37;5.53;;;;;;;10.09;55.00;101003.38;8580836;33;21042;-73
2022/05/01 21:56:58;;;;;;;7.10;5.68;;;;;;;10.03;54.93;100998.41;8581216;33;20568;-73
2022/05/01 22:02:02;;;;;;;11.10;6.60;;;;;;;10.04;55.27;100997.47;8578066;33;20286;-72
2022/05/01 22:07:06;;;;;;;7.65;5.55;;;;;;;9.88;55.25;100994.13;8580137;33;20464;-73
2022/05/01 22:12:11;;;;;;;9.40;6.05;;;;;;;9.84;55.50;100998.78;8577359;33;20976;-73
2022/05/01 22:17:14;;;;;;;7.25;6.05;;;;;;;9.81;55.40;100999.00;8577733;33;20354;-73
2022/05/01 22:22:17;;;;;;;7.90;5.85;;;;;;;9.68;55.16;101001.66;8582801;33;20435;-72
2022/05/01 22:27:21;;;;;;;6.88;6.18;;;;;;;9.55;55.81;101010.63;8580231;33;20482;-73
2022/05/01 22:32:25;;;;;;;9.02;6.38;;;;;;;9.41;56.42;101016.91;8581645;33;20508;-73
2022/05/01 22:37:30;;;;;;;10.95;6.57;;;;;;;9.26;56.31;101006.22;8576850;33;20635;-73
2022/05/01 22:42:34;;;;;;;8.80;6.32;;;;;;;9.07;56.70;101005.72;8581562;33;20238;-73
2022/05/01 22:47:38;;;;;;;10.10;6.63;;;;;;;9.05;56.83;101000.47;8581480;33;20420;-72
2022/05/01 22:52:42;;;;;;;10.20;7.43;;;;;;;9.08;56.39;100994.03;8584609;33;20470;-73
2022/05/01 22:57:46;;;;;;;9.95;7.28;;;;;;;9.09;56.26;100995.75;8586910;33;20148;-72
2022/05/01 23:02:50;;;;;;;8.77;7.25;;;;;;;8.98;56.67;100998.28;8586054;33;20414;-73
2022/05/01 23:07:53;;;;;;;11.25;8.13;;;;;;;8.82;57.03;100995.72;8562412;33;20470;-73
2022/05/01 23:12:58;;;;;;;11.90;7.90;;;;;;;8.76;57.48;100990.75;8582864;33;20417;-73
2022/05/01 23:18:01;;;;;;;10.35;7.80;;;;;;;8.49;58.20;100994.22;8580606;33;20929;-72
2022/05/01 23:23:04;;;;;;;12.60;7.47;;;;;;;8.38;58.96;100992.16;8581394;33;20465;-73
2022/05/01 23:28:10;;;;;;;8.98;7.05;;;;;;;8.54;58.49;100980.53;8578489;33;20863;-73
2022/05/01 23:33:16;;;;;;;11.32;8.73;;;;;;;8.69;57.95;100982.22;8580196;33;20133;-72
2022/05/01 23:38:19;;;;;;;10.25;8.20;;;;;;;8.77;57.72;100973.72;8582309;33;20179;-73
2022/05/01 23:43:24;;;;;;;11.25;7.80;;;;;;;8.76;57.29;100975.53;8582331;33;20415;-73
2022/05/01 23:48:27;;;;;;;10.95;7.68;;;;;;;8.72;57.62;100970.47;8582574;33;20274;-73
2022/05/01 23:53:30;;;;;;;9.68;7.45;;;;;;;8.74;57.93;100963.19;8584102;33;20230;-73
2022/05/01 23:58:35;;;;;;;10.20;7.50;;;;;;;8.64;57.73;100960.28;8578648;33;20473;-73
